Time;durP1;ratioP1;P1;durP2;ratioP2;P2;SDS_P1;SDS_P2;PMS_P1;PMS_P2;Temp;Humidity;BMP_temperature;BMP_pressure;BME280_temperature;BME280_humidity;BME280_pressure;Samples;Min_cycle;Max_cycle;Signal;HPM_P1;HPM_P2
2023/07/19 04:01:48;;;;;;;1.90;1.90;;;16.80;99.90;;;;;;5273038;23;20557;-73
2023/07/19 04:04:14;;;;;;;2.53;2.43;;;16.80;99.90;;;;;;4933957;29;20473;-73
2023/07/19 04:06:41;;;;;;;2.10;2.00;;;16.80;99.90;;;;;;4934845;29;20469;-73
2023/07/19 04:09:08;;;;;;;1.50;1.50;;;16.70;99.90;;;;;;4934060;29;20501;-73
2023/07/19 04:11:34;;;;;;;1.90;1.90;;;16.70;99.90;;;;;;4923554;29;20498;-73
2023/07/19 04:14:01;;;;;;;1.70;1.70;;;16.60;99.90;;;;;;4915478;29;21138;-72
2023/07/19 04:16:28;;;;;;;1.80;1.70;;;16.60;99.90;;;;;;4936037;23;21005;-71
2023/07/19 04:18:56;;;;;;;1.60;1.60;;;16.60;99.90;;;;;;4915445;29;20579;-71
2023/07/19 04:21:23;;;;;;;1.63;1.40;;;16.60;99.90;;;;;;4915430;29;20961;-69
2023/07/19 04:23:50;;;;;;;1.93;1.83;;;16.60;99.90;;;;;;4914477;29;20462;-70
2023/07/19 04:26:16;;;;;;;3.03;2.20;;;16.60;99.90;;;;;;4902171;29;20487;-70
2023/07/19 04:28:43;;;;;;;1.80;1.70;;;16.60;99.90;;;;;;4896367;29;20959;-70
2023/07/19 04:31:10;;;;;;;1.87;1.87;;;16.70;99.90;;;;;;4896282;29;20479;-70
2023/07/19 04:33:37;;;;;;;1.80;1.70;;;16.70;99.90;;;;;;4896294;29;20467;-70
2023/07/19 04:36:13;;;;;;;3.70;2.03;;;16.70;99.90;;;;;;4896159;29;20563;-72
2023/07/19 04:38:40;;;;;;;1.53;1.53;;;16.80;99.90;;;;;;4891723;29;20519;-72
2023/07/19 04:41:07;;;;;;;1.70;1.70;;;16.80;99.90;;;;;;4895669;29;20464;-71
2023/07/19 04:43:33;;;;;;;1.43;1.43;;;16.80;99.90;;;;;;4896722;29;20487;-69
2023/07/19 04:46:00;;;;;;;2.27;1.53;;;16.80;99.90;;;;;;4896898;29;20892;-70
2023/07/19 04:48:27;;;;;;;1.87;1.87;;;16.80;99.90;;;;;;4895996;29;21028;-70
2023/07/19 04:50:54;;;;;;;2.83;1.93;;;16.80;99.90;;;;;;4895842;29;20467;-70
2023/07/19 04:53:22;;;;;;;1.03;1.03;;;16.90;99.90;;;;;;4895393;29;20482;-70
2023/07/19 04:55:50;;;;;;;2.87;1.03;;;16.90;99.90;;;;;;4895649;29;20554;-70
2023/07/19 04:58:17;;;;;;;1.03;1.03;;;16.80;99.90;;;;;;4895732;29;20467;-70
2023/07/19 05:00:44;;;;;;;1.13;1.13;;;16.80;99.90;;;;;;4895877;29;20467;-69
2023/07/19 05:03:10;;;;;;;1.00;1.00;;;16.80;99.90;;;;;;4896141;29;20482;-70
2023/07/19 05:05:37;;;;;;;1.50;1.50;;;16.80;99.90;;;;;;4895237;29;20524;-69
2023/07/19 05:08:06;;;;;;;1.13;1.10;;;16.80;99.90;;;;;;4895218;29;20467;-68
2023/07/19 05:10:35;;;;;;;1.43;1.43;;;16.80;99.90;;;;;;4895495;29;20483;-71
2023/07/19 05:13:02;;;;;;;1.30;1.30;;;16.90;99.90;;;;;;4895727;29;20546;-67
2023/07/19 05:15:29;;;;;;;1.37;1.37;;;16.90;99.90;;;;;;4895429;29;20870;-69
2023/07/19 05:17:55;;;;;;;1.83;1.73;;;16.90;99.90;;;;;;4895412;29;20494;-68
2023/07/19 05:20:23;;;;;;;0.97;0.97;;;16.90;99.90;;;;;;4895973;29;20510;-67
2023/07/19 05:22:49;;;;;;;1.57;1.43;;;16.90;99.90;;;;;;4895151;29;21033;-67
2023/07/19 05:25:16;;;;;;;1.00;1.00;;;16.90;99.90;;;;;;4895365;29;20487;-67
2023/07/19 05:27:45;;;;;;;1.50;1.50;;;16.80;99.90;;;;;;4895474;29;20480;-70
2023/07/19 05:30:12;;;;;;;0.83;0.83;;;16.80;99.90;;;;;;4897027;29;20502;-68
2023/07/19 05:32:39;;;;;;;1.50;1.50;;;16.80;99.90;;;;;;4895434;29;20482;-67
2023/07/19 05:35:06;;;;;;;1.60;1.50;;;16.80;99.90;;;;;;4895772;29;20487;-69
2023/07/19 05:37:33;;;;;;;1.60;1.60;;;16.80;99.90;;;;;;4894854;29;20464;-73
2023/07/19 05:40:00;;;;;;;3.13;1.37;;;16.70;99.90;;;;;;4895402;29;20474;-69
2023/07/19 05:42:27;;;;;;;1.07;1.07;;;16.60;99.90;;;;;;4895249;29;20471;-68
2023/07/19 05:44:55;;;;;;;1.27;1.27;;;16.60;99.90;;;;;;4894933;29;20492;-69
2023/07/19 05:47:22;;;;;;;1.90;1.90;;;16.60;99.90;;;;;;4895268;29;20471;-69
2023/07/19 05:49:49;;;;;;;1.07;1.07;;;16.60;99.90;;;;;;4895280;29;20495;-68
2023/07/19 05:52:15;;;;;;;1.43;1.43;;;16.60;99.90;;;;;;4895034;29;20478;-70
2023/07/19 05:54:42;;;;;;;1.67;1.67;;;16.50;99.90;;;;;;4894470;29;20947;-71
2023/07/19 05:57:09;;;;;;;1.53;1.47;;;16.60;99.90;;;;;;4895111;29;20860;-69
2023/07/19 05:59:35;;;;;;;1.70;1.70;;;16.60;99.90;;;;;;4895240;29;20470;-69
2023/07/19 06:02:05;;;;;;;2.10;1.10;;;16.60;99.90;;;;;;4894816;29;20930;-69
2023/07/19 06:04:32;;;;;;;9.23;1.37;;;16.60;99.90;;;;;;4894836;29;20583;-70
2023/07/19 06:06:58;;;;;;;1.27;1.27;;;16.60;99.90;;;;;;4895291;29;20609;-69
2023/07/19 06:09:25;;;;;;;1.50;1.50;;;16.60;99.90;;;;;;4893971;29;21036;-69
2023/07/19 06:11:56;;;;;;;3.03;1.00;;;16.60;99.90;;;;;;4894727;29;20480;-69
2023/07/19 06:14:23;;;;;;;1.13;1.13;;;16.60;99.90;;;;;;4894247;29;20475;-69
2023/07/19 06:16:50;;;;;;;1.30;1.30;;;16.50;99.90;;;;;;4894683;29;20495;-69
2023/07/19 06:19:19;;;;;;;1.20;1.20;;;16.60;99.90;;;;;;4894710;29;20475;-69
2023/07/19 06:21:46;;;;;;;0.90;0.90;;;16.50;99.90;;;;;;4896180;29;20489;-69
2023/07/19 06:24:12;;;;;;;1.43;1.43;;;16.60;99.90;;;;;;4898180;29;20474;-71
2023/07/19 06:26:39;;;;;;;1.20;1.07;;;16.60;99.90;;;;;;4898573;29;20491;-71
2023/07/19 06:29:06;;;;;;;0.97;0.97;;;16.60;99.90;;;;;;4898529;29;20502;-69
2023/07/19 06:31:32;;;;;;;1.43;1.43;;;16.50;99.90;;;;;;4898661;29;20467;-71
2023/07/19 06:33:59;;;;;;;0.93;0.93;;;16.50;99.90;;;;;;4898525;29;20957;-69
2023/07/19 06:36:27;;;;;;;1.10;1.10;;;16.40;99.90;;;;;;4898771;29;20514;-69
2023/07/19 06:38:54;;;;;;;4.43;1.60;;;16.50;99.90;;;;;;4901687;29;20462;-69
2023/07/19 06:41:21;;;;;;;1.40;1.40;;;16.50;99.90;;;;;;4898083;29;20939;-70
2023/07/19 06:43:47;;;;;;;2.10;1.10;;;16.50;99.90;;;;;;4898378;29;20923;-69
2023/07/19 06:46:14;;;;;;;1.00;1.00;;;16.70;99.90;;;;;;4898427;29;20598;-69
2023/07/19 06:48:41;;;;;;;1.10;1.10;;;16.80;99.90;;;;;;4898407;29;20982;-72
2023/07/19 06:51:08;;;;;;;2.10;1.50;;;16.90;99.90;;;;;;4898509;29;20475;-69
2023/07/19 06:53:36;;;;;;;1.03;1.03;;;17.00;99.90;;;;;;4897651;29;20898;-68
2023/07/19 06:56:03;;;;;;;0.97;0.93;;;16.90;99.90;;;;;;4897738;29;20490;-68
2023/07/19 06:58:29;;;;;;;1.00;1.00;;;17.00;99.90;;;;;;4898051;29;20475;-67
2023/07/19 07:00:57;;;;;;;0.97;0.97;;;17.00;99.90;;;;;;4898100;29;20467;-68
2023/07/19 07:03:23;;;;;;;0.87;0.83;;;17.00;99.90;;;;;;4898283;29;20554;-68
2023/07/19 07:05:50;;;;;;;0.67;0.67;;;17.00;99.90;;;;;;4898110;29;20859;-68
2023/07/19 07:08:17;;;;;;;0.50;0.50;;;17.00;99.90;;;;;;4897114;29;20474;-67
2023/07/19 07:10:45;;;;;;;0.70;0.70;;;17.10;99.90;;;;;;4897671;29;20495;-69
2023/07/19 07:13:12;;;;;;;0.50;0.50;;;17.00;99.90;;;;;;4898313;29;20478;-68
2023/07/19 07:15:39;;;;;;;0.70;0.70;;;16.90;99.90;;;;;;4897356;29;20505;-68
2023/07/19 07:18:05;;;;;;;0.57;0.57;;;16.90;99.90;;;;;;4897990;29;20501;-68
2023/07/19 07:20:35;;;;;;;0.77;0.77;;;16.80;99.90;;;;;;4898111;29;20474;-68
2023/07/19 07:23:02;;;;;;;1.00;1.00;;;16.80;99.90;;;;;;4897611;29;20490;-69
2023/07/19 07:25:29;;;;;;;0.80;0.80;;;16.80;99.90;;;;;;4898881;29;20490;-69
2023/07/19 07:27:59;;;;;;;1.63;1.53;;;16.80;99.90;;;;;;4897610;29;20643;-69
2023/07/19 07:30:25;;;;;;;1.03;1.03;;;16.90;99.90;;;;;;4897562;29;20495;-69
2023/07/19 07:32:52;;;;;;;1.67;0.63;;;16.90;99.90;;;;;;4896876;29;20467;-70
2023/07/19 07:35:19;;;;;;;0.87;0.70;;;16.80;99.90;;;;;;4897443;29;20527;-69
2023/07/19 07:37:46;;;;;;;1.57;1.03;;;16.80;99.90;;;;;;4897231;29;20878;-69
2023/07/19 07:40:12;;;;;;;1.00;1.00;;;16.80;99.90;;;;;;4897218;29;20475;-69
2023/07/19 07:42:40;;;;;;;0.77;0.77;;;16.80;99.90;;;;;;4897342;29;20471;-69
2023/07/19 07:45:09;;;;;;;1.23;1.13;;;16.80;99.90;;;;;;4897288;29;20526;-70
2023/07/19 07:47:36;;;;;;;0.63;0.63;;;16.70;99.90;;;;;;4897388;29;20469;-69
2023/07/19 07:50:04;;;;;;;0.70;0.70;;;16.70;99.90;;;;;;4897432;29;20495;-70
2023/07/19 07:52:31;;;;;;;0.50;0.50;;;16.70;99.90;;;;;;4897215;29;20472;-73
2023/07/19 07:54:57;;;;;;;0.77;0.77;;;16.60;99.90;;;;;;4896802;29;20494;-71
2023/07/19 07:57:24;;;;;;;5.10;1.20;;;16.60;99.90;;;;;;4897250;29;20471;-69
2023/07/19 07:59:51;;;;;;;0.70;0.70;;;16.70;99.90;;;;;;4897236;29;20474;-70
2023/07/19 08:02:19;;;;;;;0.93;0.93;;;16.70;99.90;;;;;;4897180;29;20821;-70
2023/07/19 08:04:47;;;;;;;1.10;1.10;;;17.00;99.90;;;;;;4896631;29;20474;-69
2023/07/19 08:07:14;;;;;;;1.03;1.03;;;17.30;99.90;;;;;;4897115;29;20518;-70
2023/07/19 08:09:41;;;;;;;1.30;1.30;;;17.50;99.90;;;;;;4896191;29;21042;-72
2023/07/19 08:12:08;;;;;;;0.83;0.83;;;17.70;99.90;;;;;;4896880;29;20473;-69
2023/07/19 08:14:37;;;;;;;1.33;1.33;;;17.90;99.90;;;;;;4896564;29;20964;-71
2023/07/19 08:17:04;;;;;;;2.07;1.03;;;18.00;99.90;;;;;;4896662;29;20558;-71
2023/07/19 08:19:32;;;;;;;0.87;0.87;;;18.00;99.90;;;;;;4896489;29;20466;-70
2023/07/19 08:22:03;;;;;;;1.23;1.23;;;18.10;99.90;;;;;;4896749;29;20479;-69
2023/07/19 08:24:30;;;;;;;0.90;0.90;;;18.30;99.90;;;;;;4895622;29;20470;-70
2023/07/19 08:26:57;;;;;;;1.10;1.10;;;18.70;99.90;;;;;;4896596;29;20816;-69
2023/07/19 08:29:24;;;;;;;0.90;0.87;;;19.00;99.90;;;;;;4896582;29;20766;-70
2023/07/19 08:31:50;;;;;;;0.90;0.90;;;19.10;99.90;;;;;;4896167;29;20955;-70
2023/07/19 08:34:17;;;;;;;0.80;0.80;;;19.20;99.90;;;;;;4896256;29;20469;-69
2023/07/19 08:36:45;;;;;;;1.03;0.90;;;19.30;99.90;;;;;;4896016;29;20492;-70
2023/07/19 08:39:12;;;;;;;1.83;0.83;;;19.30;99.90;;;;;;4892154;29;20496;-69
2023/07/19 08:41:39;;;;;;;3.93;1.00;;;19.10;99.90;;;;;;4896143;29;20458;-69
2023/07/19 08:44:06;;;;;;;4.33;1.33;;;19.10;99.90;;;;;;4895700;29;20476;-71
2023/07/19 08:46:34;;;;;;;0.70;0.70;;;19.10;99.90;;;;;;4894944;29;20483;-70
2023/07/19 08:49:02;;;;;;;0.97;0.70;;;19.20;99.90;;;;;;4895883;29;20941;-71
2023/07/19 08:51:29;;;;;;;1.10;1.10;;;19.20;99.90;;;;;;4895921;29;20497;-70
2023/07/19 08:53:58;;;;;;;0.90;0.90;;;19.20;99.90;;;;;;4894996;29;20473;-72
2023/07/19 08:56:24;;;;;;;0.70;0.70;;;19.20;99.90;;;;;;4895707;29;20591;-69
2023/07/19 08:58:51;;;;;;;1.63;0.57;;;19.20;99.90;;;;;;4895639;29;20473;-68
2023/07/19 09:01:18;;;;;;;0.93;0.60;;;19.10;99.90;;;;;;4896072;29;20790;-70
2023/07/19 09:03:45;;;;;;;0.87;0.87;;;19.20;99.90;;;;;;4896218;29;20476;-69
2023/07/19 09:06:11;;;;;;;2.50;0.90;;;19.50;99.90;;;;;;4895734;29;20504;-67
2023/07/19 09:08:39;;;;;;;0.70;0.70;;;19.80;99.90;;;;;;4895193;29;20870;-68
2023/07/19 09:11:08;;;;;;;0.80;0.80;;;20.00;99.90;;;;;;4895999;29;20494;-70
2023/07/19 09:13:38;;;;;;;0.70;0.70;;;20.20;99.90;;;;;;4895688;29;20467;-67
2023/07/19 09:16:06;;;;;;;0.50;0.50;;;20.60;99.90;;;;;;4895607;29;20518;-68
2023/07/19 09:18:36;;;;;;;1.00;1.00;;;20.80;99.90;;;;;;4895891;29;20565;-69
2023/07/19 09:21:04;;;;;;;0.60;0.60;;;20.80;99.90;;;;;;4896332;29;20456;-68
2023/07/19 09:23:35;;;;;;;0.80;0.80;;;20.80;99.90;;;;;;4895073;29;20506;-69
2023/07/19 09:26:03;;;;;;;1.17;1.10;;;21.10;99.90;;;;;;4895421;29;20527;-68
2023/07/19 09:28:34;;;;;;;1.30;1.30;;;21.10;99.90;;;;;;4895909;29;20523;-68
2023/07/19 09:31:02;;;;;;;0.60;0.60;;;21.30;99.90;;;;;;4895971;29;20495;-67
2023/07/19 09:33:29;;;;;;;0.97;0.97;;;21.40;99.90;;;;;;4895517;29;20503;-68
2023/07/19 09:35:57;;;;;;;0.83;0.83;;;21.30;99.90;;;;;;4895349;29;20492;-68
2023/07/19 09:38:25;;;;;;;0.70;0.70;;;21.60;99.90;;;;;;4894480;29;20476;-68
2023/07/19 09:40:54;;;;;;;0.90;0.90;;;21.70;99.90;;;;;;4895509;29;20836;-68
2023/07/19 09:43:21;;;;;;;0.70;0.70;;;21.60;99.90;;;;;;4895472;29;20961;-67
2023/07/19 09:45:50;;;;;;;0.50;0.50;;;21.70;99.90;;;;;;4895419;29;20509;-68
2023/07/19 09:48:18;;;;;;;0.60;0.60;;;21.70;99.90;;;;;;4895443;29;20473;-69
2023/07/19 09:50:49;;;;;;;1.10;1.10;;;21.50;99.90;;;;;;4895397;29;20512;-68
2023/07/19 09:53:16;;;;;;;2.20;0.83;;;21.40;99.90;;;;;;4894676;29;20475;-69
2023/07/19 09:55:46;;;;;;;1.07;1.07;;;21.40;99.90;;;;;;4895239;29;20620;-68
2023/07/19 09:58:16;;;;;;;1.03;1.00;;;21.60;99.90;;;;;;4895211;29;20468;-69
2023/07/19 10:00:43;;;;;;;0.77;0.77;;;21.80;99.90;;;;;;4895465;29;20492;-69
2023/07/19 10:03:18;;;;;;;1.10;1.10;;;21.80;99.90;;;;;;4895222;29;20472;-69
2023/07/19 10:05:45;;;;;;;0.60;0.60;;;21.80;99.90;;;;;;4894933;29;20977;-70
2023/07/19 10:08:12;;;;;;;0.97;0.97;;;21.90;99.90;;;;;;4894909;29;20532;-70
2023/07/19 10:10:41;;;;;;;0.60;0.60;;;21.80;99.90;;;;;;4896451;29;20487;-70
2023/07/19 10:13:08;;;;;;;1.10;1.10;;;22.00;99.90;;;;;;4895962;29;20468;-70
2023/07/19 10:15:35;;;;;;;1.00;1.00;;;22.00;99.90;;;;;;4923007;23;20522;-71
2023/07/19 10:18:02;;;;;;;0.83;0.83;;;21.90;99.90;;;;;;4932553;29;20493;-71
2023/07/19 10:20:32;;;;;;;0.70;0.70;;;22.00;99.90;;;;;;4932879;29;20577;-71
2023/07/19 10:23:00;;;;;;;1.07;0.80;;;22.20;99.90;;;;;;4932218;29;20510;-71
2023/07/19 10:25:28;;;;;;;0.70;0.70;;;22.20;99.90;;;;;;4928211;29;20492;-71
2023/07/19 10:28:01;;;;;;;0.90;0.90;;;22.20;99.90;;;;;;4913384;29;20514;-71
2023/07/19 10:30:55;;;;;;;0.83;0.83;;;22.50;99.90;;;;;;4913461;29;20915;-71
2023/07/19 10:33:24;;;;;;;0.83;0.83;;;22.80;99.90;;;;;;4890567;29;20497;-71
2023/07/19 10:35:53;;;;;;;0.90;0.90;;;22.90;99.90;;;;;;4913470;29;20490;-71
2023/07/19 10:38:22;;;;;;;0.90;0.90;;;23.10;99.90;;;;;;4914029;29;20969;-71
2023/07/19 10:40:55;;;;;;;2.47;1.30;;;23.00;99.90;;;;;;4914461;29;20454;-71
2023/07/19 10:43:23;;;;;;;1.20;1.20;;;23.10;99.90;;;;;;4916046;29;20938;-71
2023/07/19 10:45:49;;;;;;;1.07;1.07;;;23.10;99.90;;;;;;4916298;29;20490;-71
2023/07/19 10:48:17;;;;;;;1.20;1.20;;;23.30;99.90;;;;;;4917496;29;20469;-71
2023/07/19 10:50:44;;;;;;;1.23;1.13;;;23.20;99.90;;;;;;4915444;29;20490;-72
2023/07/19 10:53:12;;;;;;;0.90;0.90;;;23.20;99.90;;;;;;4915347;29;20487;-71
2023/07/19 10:55:38;;;;;;;0.60;0.60;;;23.20;99.90;;;;;;4914981;29;20489;-71
2023/07/19 10:58:06;;;;;;;1.50;1.00;;;23.30;99.90;;;;;;4916891;29;20512;-71
2023/07/19 11:00:37;;;;;;;0.53;0.53;;;23.40;99.90;;;;;;4917731;29;20459;-71
2023/07/19 11:03:05;;;;;;;1.33;0.90;;;23.60;99.90;;;;;;4913876;29;20912;-71
2023/07/19 11:05:32;;;;;;;0.73;0.73;;;23.70;99.90;;;;;;4914175;29;20498;-72
2023/07/19 11:07:59;;;;;;;0.90;0.90;;;23.90;99.90;;;;;;4913066;29;20466;-72
2023/07/19 11:10:30;;;;;;;1.70;1.23;;;23.70;99.90;;;;;;4917979;29;20485;-72
2023/07/19 11:12:56;;;;;;;0.73;0.73;;;23.50;99.90;;;;;;4917153;29;20466;-71
2023/07/19 11:15:27;;;;;;;0.63;0.63;;;23.40;99.90;;;;;;4916545;29;20573;-71
2023/07/19 11:17:57;;;;;;;1.10;1.10;;;23.30;99.90;;;;;;4916732;29;20564;-72
2023/07/19 11:20:30;;;;;;;0.60;0.60;;;23.10;99.90;;;;;;4916600;29;20465;-71
2023/07/19 11:23:05;;;;;;;1.00;1.00;;;23.10;99.90;;;;;;4916090;29;20519;-71
2023/07/19 11:25:33;;;;;;;0.90;0.90;;;23.10;99.90;;;;;;4916445;29;20671;-71
2023/07/19 11:27:59;;;;;;;0.93;0.93;;;23.00;99.90;;;;;;4916479;29;20503;-71
2023/07/19 11:30:36;;;;;;;2.60;1.43;;;22.90;99.90;;;;;;4912875;29;20494;-71
2023/07/19 11:33:03;;;;;;;1.00;0.90;;;22.50;99.90;;;;;;4915841;29;20476;-71
2023/07/19 11:35:30;;;;;;;1.07;1.07;;;22.40;99.90;;;;;;4915331;29;20495;-71
2023/07/19 11:37:57;;;;;;;1.90;1.40;;;22.20;99.90;;;;;;4916076;29;20541;-71
2023/07/19 11:40:25;;;;;;;1.00;1.00;;;22.00;99.90;;;;;;4914901;29;20581;-71
2023/07/19 11:42:56;;;;;;;1.00;1.00;;;21.90;99.90;;;;;;4915883;29;20570;-72
2023/07/19 11:45:25;;;;;;;0.80;0.80;;;21.90;99.90;;;;;;4915304;29;20486;-72
2023/07/19 11:47:55;;;;;;;0.77;0.77;;;21.90;99.90;;;;;;4915768;29;20474;-72
2023/07/19 11:50:23;;;;;;;1.13;1.13;;;21.90;99.90;;;;;;4915694;29;20482;-72
2023/07/19 11:52:54;;;;;;;2.77;1.33;;;22.00;99.90;;;;;;4915921;29;20505;-72
2023/07/19 11:55:21;;;;;;;1.13;1.03;;;22.10;99.90;;;;;;4914694;29;20497;-71
2023/07/19 11:57:51;;;;;;;1.20;1.20;;;22.00;99.90;;;;;;4915475;29;20961;-71
2023/07/19 12:00:21;;;;;;;1.33;1.33;;;22.00;99.90;;;;;;4915365;29;20506;-71
2023/07/19 12:02:49;;;;;;;1.90;0.97;;;22.20;99.90;;;;;;4915850;29;20522;-71
2023/07/19 12:05:18;;;;;;;0.90;0.90;;;22.40;99.90;;;;;;4915182;29;20469;-72
2023/07/19 12:07:45;;;;;;;1.50;1.50;;;22.50;99.90;;;;;;4915595;29;20485;-72
2023/07/19 12:10:13;;;;;;;0.97;0.97;;;22.70;99.90;;;;;;4914765;29;20469;-71
2023/07/19 12:12:40;;;;;;;1.20;1.20;;;22.70;99.90;;;;;;4915091;29;20570;-72
2023/07/19 12:15:08;;;;;;;0.60;0.60;;;22.80;99.90;;;;;;4915140;29;20493;-71
2023/07/19 12:17:37;;;;;;;0.80;0.80;;;22.90;99.90;;;;;;4915162;29;20508;-72
2023/07/19 12:20:05;;;;;;;0.73;0.73;;;23.00;99.90;;;;;;4915040;29;20563;-71
2023/07/19 12:22:33;;;;;;;2.50;0.97;;;23.00;99.90;;;;;;4915771;29;20466;-71
2023/07/19 12:25:00;;;;;;;0.90;0.90;;;22.90;99.90;;;;;;4914164;29;20473;-71
2023/07/19 12:27:27;;;;;;;0.77;0.77;;;22.80;99.90;;;;;;4915233;29;20473;-71
2023/07/19 12:29:54;;;;;;;0.97;0.93;;;22.70;99.90;;;;;;4915242;29;21010;-71
2023/07/19 12:32:21;;;;;;;0.90;0.80;;;22.50;99.90;;;;;;4915118;29;20644;-71
2023/07/19 12:34:49;;;;;;;0.70;0.70;;;22.30;99.90;;;;;;4914361;29;20468;-70
2023/07/19 12:37:16;;;;;;;0.80;0.80;;;22.20;99.90;;;;;;4914567;29;20492;-71
2023/07/19 12:39:43;;;;;;;1.03;1.03;;;22.10;99.90;;;;;;4911554;29;20961;-71
2023/07/19 12:42:11;;;;;;;1.40;1.40;;;21.90;99.90;;;;;;4914433;29;20804;-71
2023/07/19 12:44:38;;;;;;;1.90;1.00;;;21.80;99.90;;;;;;4914539;29;20810;-71
2023/07/19 12:47:07;;;;;;;1.67;1.57;;;21.80;99.90;;;;;;4914645;29;20520;-71
2023/07/19 12:49:34;;;;;;;1.10;1.10;;;21.70;99.90;;;;;;4914605;29;20576;-71
2023/07/19 12:52:02;;;;;;;1.00;1.00;;;21.70;99.90;;;;;;4915163;29;20837;-71
2023/07/19 12:54:29;;;;;;;1.10;1.10;;;21.70;99.90;;;;;;4913315;29;20470;-72
2023/07/19 12:56:56;;;;;;;1.30;1.30;;;21.80;99.90;;;;;;4914477;29;20494;-71
2023/07/19 12:59:23;;;;;;;1.03;1.03;;;22.00;99.90;;;;;;4914405;29;20474;-71
2023/07/19 13:01:52;;;;;;;1.20;1.20;;;22.10;99.90;;;;;;4914492;29;20471;-71
2023/07/19 13:04:19;;;;;;;1.07;1.07;;;22.10;99.90;;;;;;4914300;29;20471;-72
2023/07/19 13:06:45;;;;;;;0.80;0.80;;;22.30;99.90;;;;;;4914166;29;20588;-72
2023/07/19 13:09:13;;;;;;;1.23;1.23;;;22.50;99.90;;;;;;4913986;29;20812;-71
2023/07/19 13:11:40;;;;;;;1.10;1.10;;;22.70;99.90;;;;;;4914313;29;20520;-72
2023/07/19 13:14:07;;;;;;;1.37;1.37;;;23.10;99.90;;;;;;4914027;29;20486;-71
2023/07/19 13:16:34;;;;;;;0.90;0.90;;;23.30;99.90;;;;;;4913757;29;21011;-71
2023/07/19 13:19:01;;;;;;;4.23;1.33;;;23.20;99.90;;;;;;4914251;29;21313;-71
2023/07/19 13:21:28;;;;;;;1.07;1.07;;;23.10;99.90;;;;;;4913960;29;20479;-71
2023/07/19 13:23:54;;;;;;;2.10;1.10;;;23.10;99.90;;;;;;4912983;29;20565;-71
2023/07/19 13:26:23;;;;;;;1.30;1.30;;;23.30;99.90;;;;;;4914098;29;20574;-71
2023/07/19 13:28:50;;;;;;;2.30;1.00;;;23.40;99.90;;;;;;4913836;29;20481;-71
2023/07/19 13:31:17;;;;;;;1.00;1.00;;;23.40;99.90;;;;;;4913087;29;21027;-71
2023/07/19 13:33:44;;;;;;;1.40;1.30;;;23.20;99.90;;;;;;4913574;29;20528;-71
2023/07/19 13:36:11;;;;;;;1.13;1.13;;;23.00;99.90;;;;;;4913922;29;21008;-71
2023/07/19 13:38:38;;;;;;;2.83;1.70;;;23.00;99.90;;;;;;4912102;29;20557;-71
2023/07/19 13:41:05;;;;;;;1.53;1.53;;;23.10;99.90;;;;;;4913459;29;20497;-72
2023/07/19 13:43:33;;;;;;;2.17;1.60;;;23.10;99.90;;;;;;4914260;29;20478;-72
2023/07/19 13:46:01;;;;;;;1.10;1.00;;;23.10;99.90;;;;;;4913179;29;20501;-72
2023/07/19 13:48:27;;;;;;;1.60;1.60;;;23.00;99.90;;;;;;4913440;29;20470;-72
2023/07/19 13:50:55;;;;;;;1.40;1.40;;;22.80;99.90;;;;;;4913491;29;20482;-72
2023/07/19 13:53:22;;;;;;;1.37;1.27;;;22.70;99.90;;;;;;4913886;29;20885;-71
2023/07/19 13:55:48;;;;;;;1.53;1.00;;;22.60;99.90;;;;;;4912611;29;20496;-72
2023/07/19 13:58:16;;;;;;;1.10;1.10;;;22.40;99.90;;;;;;4913893;29;20473;-72
2023/07/19 14:00:44;;;;;;;3.23;1.27;;;22.30;99.90;;;;;;4913339;29;20504;-71
2023/07/19 14:03:11;;;;;;;7.53;1.20;;;22.20;99.90;;;;;;4913479;29;20462;-71
2023/07/19 14:05:38;;;;;;;1.00;1.00;;;22.20;99.90;;;;;;4913189;29;20522;-71
2023/07/19 14:08:05;;;;;;;0.90;0.90;;;22.10;99.90;;;;;;4913716;29;20577;-71
2023/07/19 14:10:32;;;;;;;1.27;1.17;;;22.00;99.90;;;;;;4912718;29;20480;-71
2023/07/19 14:12:59;;;;;;;1.10;1.10;;;21.90;99.90;;;;;;4913450;29;20893;-71
2023/07/19 14:15:26;;;;;;;1.03;1.03;;;22.00;99.90;;;;;;4912871;29;20490;-71
2023/07/19 14:17:54;;;;;;;1.20;1.20;;;22.00;99.90;;;;;;4913748;29;20473;-71
2023/07/19 14:20:20;;;;;;;0.83;0.83;;;22.10;99.90;;;;;;4913548;29;20477;-71
2023/07/19 14:22:47;;;;;;;2.40;1.10;;;22.20;99.90;;;;;;4913651;29;20885;-72
2023/07/19 14:25:14;;;;;;;1.10;1.10;;;22.10;99.90;;;;;;4912664;29;20480;-71
2023/07/19 14:27:41;;;;;;;1.27;1.27;;;21.90;99.90;;;;;;4913215;29;20526;-71
2023/07/19 14:30:09;;;;;;;1.10;1.10;;;21.90;99.90;;;;;;4912906;29;20473;-72
2023/07/19 14:32:36;;;;;;;4.87;1.50;;;21.90;99.90;;;;;;4913361;29;21016;-72
2023/07/19 14:35:05;;;;;;;1.00;1.00;;;21.80;99.90;;;;;;4913424;29;20477;-72
2023/07/19 14:37:32;;;;;;;1.53;1.53;;;21.70;99.90;;;;;;4913441;29;20470;-72
2023/07/19 14:39:59;;;;;;;1.20;1.20;;;21.60;99.90;;;;;;4912156;29;20485;-72
2023/07/19 14:42:26;;;;;;;1.20;1.20;;;21.60;99.90;;;;;;4913507;29;20463;-72
2023/07/19 14:44:53;;;;;;;1.00;1.00;;;21.60;99.90;;;;;;4916133;29;20477;-72
2023/07/19 14:47:20;;;;;;;0.80;0.80;;;21.60;99.90;;;;;;4916302;29;21002;-72
2023/07/19 14:49:46;;;;;;;1.20;1.13;;;21.30;99.90;;;;;;4916748;29;20506;-71
2023/07/19 14:52:14;;;;;;;1.87;1.77;;;21.00;99.90;;;;;;4916715;29;20492;-71
2023/07/19 14:54:42;;;;;;;1.83;1.73;;;20.30;99.90;;;;;;4916196;29;20474;-72
2023/07/19 15:00:30;;;;;;;4.47;2.17;;;19.10;99.90;;;;;;4934578;29;20857;-72
2023/07/19 15:02:57;;;;;;;1.50;1.50;;;18.70;99.90;;;;;;4935880;29;20917;-73
2023/07/19 15:05:24;;;;;;;0.40;0.40;;;18.40;99.90;;;;;;4935330;29;20486;-73
2023/07/19 15:07:52;;;;;;;0.83;0.83;;;18.20;99.90;;;;;;4936182;29;20481;-72
2023/07/19 15:10:19;;;;;;;0.57;0.57;;;18.00;99.90;;;;;;4935223;29;20855;-72
2023/07/19 15:12:46;;;;;;;2.20;1.73;;;17.80;99.90;;;;;;4935777;29;20525;-72
2023/07/19 15:15:12;;;;;;;0.83;0.83;;;17.70;99.90;;;;;;4935505;29;20477;-72
2023/07/19 15:17:39;;;;;;;1.30;1.20;;;17.70;99.90;;;;;;4936469;29;20485;-71
2023/07/19 15:20:07;;;;;;;0.73;0.73;;;17.60;99.90;;;;;;4935398;29;20826;-72
2023/07/19 15:22:34;;;;;;;1.53;0.60;;;17.40;99.90;;;;;;4936147;29;20488;-71
2023/07/19 15:25:02;;;;;;;2.43;1.10;;;17.40;99.90;;;;;;4934565;29;20475;-71
2023/07/19 15:27:29;;;;;;;0.40;0.40;;;17.50;99.90;;;;;;4935460;29;20472;-71
2023/07/19 15:29:55;;;;;;;0.70;0.70;;;17.50;99.90;;;;;;4935226;29;20470;-70
2023/07/19 15:32:22;;;;;;;0.70;0.70;;;17.60;99.90;;;;;;4935742;29;20492;-71
2023/07/19 15:34:49;;;;;;;1.80;0.70;;;17.60;99.90;;;;;;4936127;29;20473;-71
2023/07/19 15:37:15;;;;;;;3.03;1.00;;;17.60;99.90;;;;;;4935616;29;20485;-71
2023/07/19 15:39:43;;;;;;;0.67;0.67;;;17.60;99.90;;;;;;4922857;29;20482;-71
2023/07/19 15:42:11;;;;;;;0.90;0.90;;;17.70;99.90;;;;;;4916894;29;20467;-71
2023/07/19 15:44:38;;;;;;;0.70;0.70;;;17.80;99.90;;;;;;4916349;29;20509;-71
2023/07/19 15:47:05;;;;;;;0.53;0.50;;;17.80;99.90;;;;;;4918972;29;20838;-70
2023/07/19 15:49:32;;;;;;;1.00;1.00;;;17.90;99.90;;;;;;4918559;29;20462;-72
2023/07/19 15:52:00;;;;;;;0.83;0.83;;;18.00;99.90;;;;;;4918245;29;20498;-72
2023/07/19 15:54:28;;;;;;;0.80;0.80;;;18.10;99.90;;;;;;4914823;29;20537;-72
2023/07/19 15:56:55;;;;;;;1.83;1.00;;;18.10;99.90;;;;;;4917395;29;20501;-72
2023/07/19 15:59:23;;;;;;;0.70;0.70;;;18.20;99.90;;;;;;4916048;29;20477;-72
2023/07/19 16:01:50;;;;;;;1.10;1.10;;;18.20;99.90;;;;;;4916394;29;20538;-72
2023/07/19 16:04:16;;;;;;;1.00;1.00;;;18.30;99.90;;;;;;4915581;29;20943;-71
2023/07/19 16:06:43;;;;;;;1.63;1.53;;;18.40;99.90;;;;;;4915774;29;20486;-72
2023/07/19 16:09:10;;;;;;;1.70;1.60;;;18.50;99.90;;;;;;4915362;29;20502;-72
2023/07/19 16:11:38;;;;;;;2.13;1.03;;;18.50;99.90;;;;;;4915812;29;20492;-72
2023/07/19 16:14:05;;;;;;;1.50;1.50;;;18.60;99.90;;;;;;4915511;29;20557;-71
2023/07/19 16:16:35;;;;;;;1.93;1.50;;;18.70;99.90;;;;;;4938642;23;20617;-70
2023/07/19 16:19:02;;;;;;;1.20;1.20;;;18.80;99.90;;;;;;4915022;29;20617;-70
2023/07/19 16:21:29;;;;;;;1.70;1.70;;;18.90;99.90;;;;;;4914846;29;20474;-70
2023/07/19 16:23:55;;;;;;;1.80;1.77;;;18.90;99.90;;;;;;4915371;29;20868;-70
2023/07/19 16:26:22;;;;;;;2.10;2.00;;;18.90;99.90;;;;;;4908013;29;21030;-70
2023/07/19 16:28:49;;;;;;;1.60;1.60;;;18.90;99.90;;;;;;4896409;29;20479;-70
2023/07/19 16:31:18;;;;;;;1.90;1.80;;;18.90;99.90;;;;;;4896609;29;20471;-70
2023/07/19 16:33:46;;;;;;;1.40;1.40;;;18.90;99.90;;;;;;4896637;29;20494;-70
2023/07/19 16:36:13;;;;;;;2.67;2.43;;;19.00;99.90;;;;;;4896305;29;20577;-70
2023/07/19 16:38:39;;;;;;;1.60;1.60;;;19.00;99.90;;;;;;4895581;29;20482;-70
2023/07/19 16:41:06;;;;;;;2.20;2.10;;;19.10;99.90;;;;;;4895365;29;20838;-70
2023/07/19 16:43:33;;;;;;;2.00;1.90;;;19.10;99.90;;;;;;4896609;29;20534;-71
2023/07/19 16:46:00;;;;;;;2.10;1.97;;;19.20;99.90;;;;;;4896564;29;20503;-70
2023/07/19 16:48:26;;;;;;;2.53;2.10;;;19.40;99.90;;;;;;4896955;29;20463;-70
2023/07/19 16:50:54;;;;;;;1.90;1.90;;;19.50;99.90;;;;;;4896477;29;20476;-71
2023/07/19 16:53:21;;;;;;;2.80;2.70;;;19.60;99.90;;;;;;4896374;29;20498;-71